Time;durP1;ratioP1;P1;durP2;ratioP2;P2;SDS_P1;SDS_P2;PMS_P1;PMS_P2;Temp;Humidity;BMP_temperature;BMP_pressure;BME280_temperature;BME280_humidity;BME280_pressure;Samples;Min_cycle;Max_cycle;Signal;HPM_P1;HPM_P2
2022/06/16 00:00:37;;;;;;;;;;;13.80;99.90;;;;;;5034551;28;20435;-79
2022/06/16 00:03:02;;;;;;;;;;;13.80;99.90;;;;;;5033667;28;20420;-79
2022/06/16 00:05:29;;;;;;;;;;;13.80;99.90;;;;;;5033678;28;19921;-78
2022/06/16 00:07:55;;;;;;;;;;;13.80;99.90;;;;;;5034270;28;19986;-78
2022/06/16 00:10:21;;;;;;;;;;;13.80;99.90;;;;;;5033366;28;19917;-78
2022/06/16 00:12:47;;;;;;;;;;;13.80;99.90;;;;;;5034116;28;20250;-78
2022/06/16 00:15:15;;;;;;;;;;;13.70;99.90;;;;;;5033729;28;19917;-79
2022/06/16 00:17:40;;;;;;;;;;;13.70;99.90;;;;;;5034001;28;19917;-78
2022/06/16 00:20:07;;;;;;;;;;;13.70;99.90;;;;;;5033750;28;19924;-78
2022/06/16 00:22:33;;;;;;;;;;;13.70;99.90;;;;;;5034285;28;20253;-78
2022/06/16 00:24:59;;;;;;;;;;;13.60;99.90;;;;;;5033244;28;20011;-78
2022/06/16 00:27:25;;;;;;;;;;;13.50;99.90;;;;;;5015878;28;20443;-78
2022/06/16 00:29:50;;;;;;;;;;;13.60;99.90;;;;;;5033568;28;19921;-78
2022/06/16 00:32:16;;;;;;;;;;;13.50;99.90;;;;;;5033277;28;19947;-78
2022/06/16 00:34:42;;;;;;;;;;;13.50;99.90;;;;;;5016086;28;19921;-78
2022/06/16 00:37:07;;;;;;;;;;;13.40;99.90;;;;;;5033212;28;19921;-78
2022/06/16 00:39:33;;;;;;;;;;;13.50;99.90;;;;;;5034123;28;19972;-78
2022/06/16 00:42:07;;;;;;;;;;;13.50;99.90;;;;;;5032385;28;19925;-79
2022/06/16 00:44:33;;;;;;;;;;;13.40;99.90;;;;;;5032737;28;20261;-78
2022/06/16 00:46:59;;;;;;;;;;;13.40;99.90;;;;;;5016178;28;19927;-78
2022/06/16 00:49:25;;;;;;;;;;;13.30;99.90;;;;;;5033995;28;20020;-78
2022/06/16 00:51:52;;;;;;;;;;;13.30;1.00;;;;;;5032923;28;19921;-78
2022/06/16 00:54:20;;;;;;;;;;;13.20;1.00;;;;;;5016394;28;19943;-78
2022/06/16 00:56:47;;;;;;;;;;;13.10;1.00;;;;;;5032585;28;20007;-78
2022/06/16 00:59:12;;;;;;;;;;;13.10;1.00;;;;;;5032662;28;19921;-78
2022/06/16 01:01:39;;;;;;;;;;;13.00;1.00;;;;;;5032561;28;19925;-78
2022/06/16 01:06:49;;;;;;;;;;;13.00;1.00;;;;;;5033259;28;19983;-78
2022/06/16 01:09:16;;;;;;;;;;;12.90;1.00;;;;;;5033419;28;19921;-78
2022/06/16 01:14:48;;;;;;;;;;;12.90;1.00;;;;;;5032331;28;20273;-77
2022/06/16 01:17:20;;;;;;;;;;;12.90;1.00;;;;;;5033177;28;19921;-78
2022/06/16 01:19:46;;;;;;;;;;;12.90;99.90;;;;;;5033889;28;19940;-78
2022/06/16 01:22:17;;;;;;;;;;;12.90;99.90;;;;;;5032672;28;20324;-78
2022/06/16 01:24:42;;;;;;;;;;;12.90;99.90;;;;;;5033393;28;19921;-78
2022/06/16 01:27:21;;;;;;;;;;;12.90;99.90;;;;;;5031878;28;20361;-78
2022/06/16 01:30:06;;;;;;;;;;;12.90;1.00;;;;;;5015090;28;19921;-78
2022/06/16 01:32:42;;;;;;;;;;;12.90;1.00;;;;;;5032469;28;20432;-79
2022/06/16 01:35:11;;;;;;;;;;;12.90;1.00;;;;;;5031717;28;19928;-78
2022/06/16 01:37:45;;;;;;;;;;;12.90;1.00;;;;;;5032430;28;20328;-79
2022/06/16 01:40:19;;;;;;;;;;;12.90;1.00;;;;;;5031995;28;19921;-79
2022/06/16 01:43:03;;;;;;;;;;;12.90;1.00;;;;;;5032686;28;19928;-79
2022/06/16 01:45:32;;;;;;;;;;;13.00;1.00;;;;;;5031607;28;19968;-78
2022/06/16 01:47:58;;;;;;;;;;;13.00;1.00;;;;;;5032129;28;19920;-78
2022/06/16 01:50:35;;;;;;;;;;;13.00;1.00;;;;;;5014892;28;20384;-78
2022/06/16 01:53:07;;;;;;;;;;;13.00;1.00;;;;;;5032431;28;19932;-78
2022/06/16 01:55:39;;;;;;;;;;;13.00;1.00;;;;;;5031733;28;20338;-78
2022/06/16 01:58:05;;;;;;;;;;;13.00;1.00;;;;;;5031441;28;19928;-78
2022/06/16 02:00:31;;;;;;;;;;;13.00;1.00;;;;;;5014912;28;19921;-78
2022/06/16 02:03:19;;;;;;;;;;;13.00;1.00;;;;;;5032554;28;19925;-78
2022/06/16 02:05:48;;;;;;;;;;;13.10;1.00;;;;;;5031303;28;20276;-78
2022/06/16 02:08:30;;;;;;;;;;;13.00;1.00;;;;;;5031988;28;19921;-78
2022/06/16 02:10:57;;;;;;;;;;;13.10;1.00;;;;;;5031819;28;19921;-78
2022/06/16 02:13:25;;;;;;;;;;;13.10;1.00;;;;;;4998232;28;19937;-78
2022/06/16 02:15:59;;;;;;;;;;;13.10;1.00;;;;;;5030475;28;19921;-78
2022/06/16 02:18:27;;;;;;;;;;;13.10;1.00;;;;;;5032073;28;19970;-78
2022/06/16 02:21:01;;;;;;;;;;;13.10;1.00;;;;;;5031640;28;19988;-78
2022/06/16 02:23:28;;;;;;;;;;;13.20;1.00;;;;;;5031998;28;20446;-78
2022/06/16 02:25:55;;;;;;;;;;;13.10;1.00;;;;;;5030780;28;20366;-78
2022/06/16 02:28:21;;;;;;;;;;;13.10;1.00;;;;;;5031362;28;20372;-78
2022/06/16 02:30:55;;;;;;;;;;;13.10;1.00;;;;;;5031744;28;20205;-78
2022/06/16 02:33:35;;;;;;;;;;;13.10;1.00;;;;;;5031587;28;20515;-78
2022/06/16 02:36:24;;;;;;;;;;;13.00;1.00;;;;;;5031931;28;20431;-78
2022/06/16 02:38:55;;;;;;;;;;;13.00;1.00;;;;;;4977318;28;19925;-78
2022/06/16 02:41:33;;;;;;;;;;;13.00;1.00;;;;;;5031079;28;20019;-78
2022/06/16 02:44:12;;;;;;;;;;;12.90;1.00;;;;;;5031840;28;19933;-78
2022/06/16 02:46:56;;;;;;;;;;;12.90;1.00;;;;;;5031277;28;20435;-78
2022/06/16 02:49:24;;;;;;;;;;;12.80;1.00;;;;;;5030464;28;20161;-77
2022/06/16 02:51:58;;;;;;;;;;;12.80;1.00;;;;;;5032020;28;19928;-78
2022/06/16 02:54:31;;;;;;;;;;;12.80;1.00;;;;;;5031110;28;19921;-77
2022/06/16 02:57:00;;;;;;;;;;;12.90;1.00;;;;;;5031328;28;19921;-77
2022/06/16 02:59:27;;;;;;;;;;;12.90;1.00;;;;;;5029899;28;20313;-78
2022/06/16 03:01:59;;;;;;;;;;;12.90;1.00;;;;;;5031330;28;19960;-78
2022/06/16 03:04:33;;;;;;;;;;;12.90;1.00;;;;;;5030942;28;20016;-78
2022/06/16 03:06:59;;;;;;;;;;;12.90;1.00;;;;;;5030869;28;20071;-77
2022/06/16 03:09:24;;;;;;;;;;;12.90;1.00;;;;;;5030468;28;20020;-78
2022/06/16 03:11:50;;;;;;;;;;;12.80;1.00;;;;;;5031201;28;19928;-77
2022/06/16 03:14:15;;;;;;;;;;;12.80;1.00;;;;;;5030147;28;19921;-78
2022/06/16 03:16:41;;;;;;;;;;;13.30;1.00;;;;;;5013105;28;19927;-78
2022/06/16 03:19:06;;;;;;;;;;;12.70;1.00;;;;;;5030604;28;19921;-78
2022/06/16 03:21:32;;;;;;;;;;;12.60;1.00;;;;;;5030825;28;20361;-78
2022/06/16 03:23:57;;;;;;;;;;;12.60;1.00;;;;;;5031912;28;20387;-78
2022/06/16 03:26:23;;;;;;;;;;;12.60;1.00;;;;;;5030343;28;20385;-78
2022/06/16 03:28:49;;;;;;;;;;;12.60;1.00;;;;;;5031069;28;20324;-78
2022/06/16 03:31:15;;;;;;;;;;;12.60;1.00;;;;;;5012637;28;19923;-78
2022/06/16 03:33:41;;;;;;;;;;;12.60;1.00;;;;;;5031625;28;20356;-78
2022/06/16 03:36:06;;;;;;;;;;;12.60;1.00;;;;;;5031752;28;19921;-78
2022/06/16 03:41:03;;;;;;;;;;;12.70;1.00;;;;;;5012376;28;19925;-78
2022/06/16 03:43:29;;;;;;;;;;;12.70;1.00;;;;;;5013447;28;19930;-78
2022/06/16 03:45:54;;;;;;;;;;;12.70;1.00;;;;;;5030370;28;20015;-78
2022/06/16 03:48:20;;;;;;;;;;;12.60;1.00;;;;;;5030804;28;20373;-78
2022/06/16 03:50:46;;;;;;;;;;;12.60;1.00;;;;;;5030612;28;20063;-78
2022/06/16 03:53:12;;;;;;;;;;;12.50;1.00;;;;;;5030665;28;19936;-78
2022/06/16 03:55:37;;;;;;;;;;;12.40;1.00;;;;;;5030407;28;20365;-78
2022/06/16 03:58:03;;;;;;;;;;;12.40;1.00;;;;;;5030087;28;20078;-77
2022/06/16 04:00:29;;;;;;;;;;;12.40;1.00;;;;;;5030033;28;20212;-78
2022/06/16 04:05:39;;;;;;;;;;;12.30;1.00;;;;;;5030749;28;19936;-78
2022/06/16 04:08:05;;;;;;;;;;;12.40;1.00;;;;;;5030355;28;19921;-78
2022/06/16 04:10:31;;;;;;;;;;;12.50;11.90;;;;;;5029372;28;19917;-78
2022/06/16 04:12:57;;;;;;;;;;;12.60;13.00;;;;;;5030622;28;19925;-78
2022/06/16 04:15:22;;;;;;;;;;;12.80;16.60;;;;;;5030136;28;19921;-78
2022/06/16 04:17:48;;;;;;;;;;;12.90;10.00;;;;;;5030813;28;19925;-78
2022/06/16 04:20:14;;;;;;;;;;;13.00;13.40;;;;;;5031788;28;19968;-78
2022/06/16 04:22:40;;;;;;;;;;;13.10;14.20;;;;;;5034996;28;19975;-77
2022/06/16 04:25:07;;;;;;;;;;;13.20;13.60;;;;;;5034345;28;19921;-78
2022/06/16 04:27:33;;;;;;;;;;;13.30;16.60;;;;;;5034104;28;20287;-78
2022/06/16 04:29:59;;;;;;;;;;;13.40;13.80;;;;;;5035117;28;20011;-78
2022/06/16 04:32:24;;;;;;;;;;;13.50;1.00;;;;;;5034129;28;19979;-78
2022/06/16 04:34:50;;;;;;;;;;;13.60;1.30;;;;;;5033815;28;20028;-78
2022/06/16 04:37:16;;;;;;;;;;;13.80;1.00;;;;;;5033851;28;19921;-77
2022/06/16 04:39:41;;;;;;;;;;;13.80;8.90;;;;;;5033769;28;20035;-77
2022/06/16 04:42:07;;;;;;;;;;;13.90;1.00;;;;;;5032790;28;19921;-77
2022/06/16 04:44:34;;;;;;;;;;;14.00;1.00;;;;;;5016375;28;19997;-77
2022/06/16 04:47:01;;;;;;;;;;;14.10;3.80;;;;;;5033940;28;19948;-77
2022/06/16 04:49:28;;;;;;;;;;;14.20;1.00;;;;;;5016008;28;20289;-77
2022/06/16 04:51:53;;;;;;;;;;;14.30;1.00;;;;;;5033349;28;19928;-77
2022/06/16 04:54:19;;;;;;;;;;;14.50;1.00;;;;;;5033256;28;19925;-78
2022/06/16 04:56:45;;;;;;;;;;;14.60;1.00;;;;;;5034043;28;19960;-78
2022/06/16 04:59:13;;;;;;;;;;;14.70;1.00;;;;;;5033949;28;19921;-78
2022/06/16 05:01:39;;;;;;;;;;;14.80;1.00;;;;;;5033174;28;19937;-77
2022/06/16 05:04:05;;;;;;;;;;;15.00;1.00;;;;;;5033168;28;19947;-78
2022/06/16 05:06:30;;;;;;;;;;;15.30;1.00;;;;;;5033514;28;19964;-77
2022/06/16 05:08:56;;;;;;;;;;;15.20;1.00;;;;;;5033609;28;20317;-78
2022/06/16 05:11:21;;;;;;;;;;;15.30;1.00;;;;;;5032712;28;20292;-78
2022/06/16 05:13:47;;;;;;;;;;;15.40;1.00;;;;;;5033261;28;19921;-77
2022/06/16 05:16:12;;;;;;;;;;;15.40;1.00;;;;;;5033403;28;19964;-77
2022/06/16 05:18:38;;;;;;;;;;;15.50;1.00;;;;;;5032641;28;19925;-78
2022/06/16 05:21:13;;;;;;;;;;;15.50;1.00;;;;;;5033313;28;19927;-77
2022/06/16 05:23:39;;;;;;;;;;;15.60;1.00;;;;;;5032949;28;19979;-77
2022/06/16 05:26:05;;;;;;;;;;;15.70;1.00;;;;;;5032431;28;20254;-79
2022/06/16 05:28:31;;;;;;;;;;;15.20;1.00;;;;;;5032005;28;20444;-78
2022/06/16 05:30:57;;;;;;;;;;;15.80;1.00;;;;;;5032859;28;20016;-79
2022/06/16 05:33:23;;;;;;;;;;;15.90;1.00;;;;;;5033061;28;19982;-78
2022/06/16 05:35:59;;;;;;;;;;;15.90;1.00;;;;;;5033618;28;19948;-78
2022/06/16 05:38:25;;;;;;;;;;;15.90;1.00;;;;;;5033051;28;19921;-78
2022/06/16 05:40:55;;;;;;;;;;;16.00;1.00;;;;;;5032531;28;19921;-78
2022/06/16 05:43:20;;;;;;;;;;;16.00;1.00;;;;;;5033176;28;20327;-79
2022/06/16 05:45:46;;;;;;;;;;;16.00;1.00;;;;;;5032864;28;20020;-78
2022/06/16 05:48:11;;;;;;;;;;;16.00;1.00;;;;;;5033247;28;19925;-78
2022/06/16 05:50:37;;;;;;;;;;;16.00;1.00;;;;;;5032717;28;19917;-79
2022/06/16 05:53:03;;;;;;;;;;;16.00;1.00;;;;;;5033317;28;20272;-79
2022/06/16 05:55:28;;;;;;;;;;;15.90;1.00;;;;;;5032503;28;20082;-78
2022/06/16 05:57:54;;;;;;;;;;;15.80;1.00;;;;;;5033143;28;20102;-78
2022/06/16 06:00:19;;;;;;;;;;;15.70;1.00;;;;;;5014741;28;19917;-79
2022/06/16 06:02:45;;;;;;;;;;;15.70;1.00;;;;;;5032658;28;19921;-79
2022/06/16 06:05:11;;;;;;;;;;;15.60;1.00;;;;;;5032852;28;19948;-79
2022/06/16 06:18:21;;;;;;;;;;;15.50;1.00;;;;;;5032078;28;19921;-79
2022/06/16 06:20:47;;;;;;;;;;;15.60;1.00;;;;;;5032573;28;19925;-78
2022/06/16 06:23:13;;;;;;;;;;;15.80;1.00;;;;;;5032679;28;20373;-78
2022/06/16 06:25:38;;;;;;;;;;;15.70;1.00;;;;;;5032036;28;20308;-79
2022/06/16 06:28:04;;;;;;;;;;;15.70;1.00;;;;;;5032463;28;20305;-78
2022/06/16 06:30:30;;;;;;;;;;;15.80;1.00;;;;;;5032327;28;20380;-79
2022/06/16 06:32:59;;;;;;;;;;;15.80;1.00;;;;;;5032549;28;19921;-78
2022/06/16 06:35:25;;;;;;;;;;;15.90;1.00;;;;;;5032298;28;19921;-78
2022/06/16 06:37:51;;;;;;;;;;;16.00;1.00;;;;;;5024410;28;20353;-79
2022/06/16 06:40:19;;;;;;;;;;;16.10;1.00;;;;;;5032290;28;19928;-79
2022/06/16 06:42:45;;;;;;;;;;;16.20;1.00;;;;;;5014218;28;19921;-78
2022/06/16 06:45:10;;;;;;;;;;;16.30;1.00;;;;;;5032250;28;20043;-79
2022/06/16 06:47:36;;;;;;;;;;;16.30;99.90;;;;;;5032248;28;19921;-78
2022/06/16 06:50:01;;;;;;;;;;;16.30;99.90;;;;;;5032376;28;19921;-78
2022/06/16 06:52:27;;;;;;;;;;;16.40;99.90;;;;;;5031987;28;19974;-79
2022/06/16 06:54:52;;;;;;;;;;;16.50;99.90;;;;;;5032179;28;20361;-78
2022/06/16 06:57:21;;;;;;;;;;;16.60;99.90;;;;;;5031824;28;20341;-79
2022/06/16 06:59:46;;;;;;;;;;;16.70;99.90;;;;;;5030837;28;20345;-79
2022/06/16 07:02:13;;;;;;;;;;;16.80;99.90;;;;;;5014142;28;19921;-81
2022/06/16 07:04:39;;;;;;;;;;;16.90;99.90;;;;;;5029135;28;19925;-79
2022/06/16 07:07:04;;;;;;;;;;;17.00;99.90;;;;;;5012682;28;19928;-80
2022/06/16 07:09:30;;;;;;;;;;;17.60;99.90;;;;;;5031169;28;19968;-80
2022/06/16 07:11:55;;;;;;;;;;;19.20;99.90;;;;;;5030105;28;19924;-79
2022/06/16 07:14:21;;;;;;;;;;;21.10;99.90;;;;;;5013326;28;20007;-79
2022/06/16 07:16:49;;;;;;;;;;;22.90;99.90;;;;;;5030611;28;20384;-79
2022/06/16 07:19:15;;;;;;;;;;;24.30;99.90;;;;;;5030511;28;20350;-79
2022/06/16 07:21:40;;;;;;;;;;;25.40;99.90;;;;;;5030423;28;20004;-80
2022/06/16 07:24:06;;;;;;;;;;;26.60;99.90;;;;;;5031144;28;19976;-80
2022/06/16 07:26:32;;;;;;;;;;;27.40;99.90;;;;;;5030588;28;19928;-80
2022/06/16 07:29:00;;;;;;;;;;;27.90;99.90;;;;;;5031586;28;19932;-81
2022/06/16 07:31:26;;;;;;;;;;;28.80;99.90;;;;;;5031497;28;19932;-80
2022/06/16 07:33:52;;;;;;;;;;;29.60;99.90;;;;;;5031547;28;19921;-81
2022/06/16 07:36:17;;;;;;;;;;;30.20;99.90;;;;;;5031143;28;20369;-80
2022/06/16 07:38:43;;;;;;;;;;;29.90;99.90;;;;;;5029786;28;20581;-81
2022/06/16 07:43:54;;;;;;;;;;;31.20;99.90;;;;;;5028831;28;20544;-81
2022/06/16 07:46:19;;;;;;;;;;;31.50;99.90;;;;;;5030898;28;19943;-80
2022/06/16 07:48:45;;;;;;;;;;;30.80;99.90;;;;;;5030096;28;20366;-81
2022/06/16 07:51:11;;;;;;;;;;;31.40;99.90;;;;;;5030762;28;19921;-81
2022/06/16 07:53:36;;;;;;;;;;;31.10;99.90;;;;;;5029916;28;20434;-81
2022/06/16 07:56:02;;;;;;;;;;;31.40;99.90;;;;;;5033662;28;20011;-81
2022/06/16 07:58:31;;;;;;;;;;;32.00;99.90;;;;;;5016360;28;20233;-81
2022/06/16 08:00:58;;;;;;;;;;;32.10;99.90;;;;;;5034307;28;19928;-81
2022/06/16 08:03:26;;;;;;;;;;;32.10;99.90;;;;;;5033822;28;19995;-81
2022/06/16 08:05:55;;;;;;;;;;;32.60;99.90;;;;;;5034244;28;20180;-81
2022/06/16 08:08:23;;;;;;;;;;;32.80;99.90;;;;;;5034797;28;20297;-80
2022/06/16 08:10:49;;;;;;;;;;;32.90;99.90;;;;;;5016123;28;20499;-82
2022/06/16 08:13:15;;;;;;;;;;;33.10;99.90;;;;;;5034569;28;20024;-81
2022/06/16 08:15:45;;;;;;;;;;;33.10;99.90;;;;;;5034017;28;20331;-81
2022/06/16 08:18:12;;;;;;;;;;;33.50;99.90;;;;;;5016767;28;19921;-81
2022/06/16 08:20:38;;;;;;;;;;;32.90;99.90;;;;;;5034566;28;19921;-81
2022/06/16 08:23:03;;;;;;;;;;;33.20;99.90;;;;;;5017305;28;20027;-81
2022/06/16 08:25:30;;;;;;;;;;;33.30;99.90;;;;;;5034166;28;19971;-81
2022/06/16 08:27:56;;;;;;;;;;;33.60;99.90;;;;;;5016461;28;19921;-81
2022/06/16 08:30:23;;;;;;;;;;;34.30;99.90;;;;;;5016640;28;20270;-82
2022/06/16 08:32:49;;;;;;;;;;;34.80;99.90;;;;;;5034111;28;20293;-82
2022/06/16 08:35:14;;;;;;;;;;;35.00;99.90;;;;;;5034312;28;19920;-83
2022/06/16 08:37:40;;;;;;;;;;;35.00;99.90;;;;;;5015978;28;20142;-82
2022/06/16 08:40:06;;;;;;;;;;;34.60;99.90;;;;;;5034306;28;19932;-82
2022/06/16 08:42:40;;;;;;;;;;;34.20;99.90;;;;;;5034073;28;19921;-82
2022/06/16 08:45:08;;;;;;;;;;;33.70;99.90;;;;;;5034189;28;19976;-82
2022/06/16 08:47:47;;;;;;;;;;;34.20;99.90;;;;;;5034092;28;19932;-82
2022/06/16 08:50:39;;;;;;;;;;;34.60;99.90;;;;;;5016213;28;20262;-81
2022/06/16 08:53:24;;;;;;;;;;;35.10;99.90;;;;;;4997427;28;20318;-81
2022/06/16 08:55:56;;;;;;;;;;;35.20;99.90;;;;;;5015512;28;19968;-82
2022/06/16 08:58:22;;;;;;;;;;;35.50;99.90;;;;;;5034071;28;19921;-82
2022/06/16 09:00:55;;;;;;;;;;;35.80;99.90;;;;;;5032849;28;19921;-81
2022/06/16 09:03:20;;;;;;;;;;;35.70;99.90;;;;;;5034063;28;19928;-81
2022/06/16 09:05:57;;;;;;;;;;;36.00;99.90;;;;;;5032635;28;19925;-82
2022/06/16 09:08:36;;;;;;;;;;;36.30;99.90;;;;;;5033109;28;20342;-82
2022/06/16 09:11:10;;;;;;;;;;;36.70;99.90;;;;;;5032330;28;20012;-82
2022/06/16 09:13:57;;;;;;;;;;;36.80;99.90;;;;;;5032612;28;19921;-82
2022/06/16 09:16:52;;;;;;;;;;;36.40;99.90;;;;;;5032324;28;20492;-82
2022/06/16 09:19:18;;;;;;;;;;;36.60;99.90;;;;;;5011428;28;19941;-82
2022/06/16 09:22:00;;;;;;;;;;;36.10;99.90;;;;;;5032366;28;19921;-81
2022/06/16 09:24:35;;;;;;;;;;;36.70;99.90;;;;;;5032504;28;20038;-81
2022/06/16 09:27:19;;;;;;;;;;;37.50;99.90;;;;;;5024333;28;19927;-81
2022/06/16 09:29:48;;;;;;;;;;;37.40;99.90;;;;;;5032770;28;19921;-80
2022/06/16 09:32:18;;;;;;;;;;;37.50;99.90;;;;;;5016219;28;19920;-81
2022/06/16 09:35:00;;;;;;;;;;;37.80;99.90;;;;;;5014718;28;19921;-81
2022/06/16 09:37:42;;;;;;;;;;;37.90;99.90;;;;;;5033300;28;19921;-82
2022/06/16 09:40:17;;;;;;;;;;;38.20;99.90;;;;;;5032837;28;20403;-80
2022/06/16 09:42:52;;;;;;;;;;;38.00;99.90;;;;;;5015390;28;19927;-81
2022/06/16 09:45:25;;;;;;;;;;;37.90;99.90;;;;;;5015612;28;19921;-82
2022/06/16 09:47:54;;;;;;;;;;;37.60;99.90;;;;;;5033221;28;19943;-82
2022/06/16 09:50:37;;;;;;;;;;;37.50;99.90;;;;;;5032925;28;19987;-81
2022/06/16 09:53:03;;;;;;;;;;;37.30;99.90;;;;;;5032633;28;20018;-81
2022/06/16 09:55:45;;;;;;;;;;;37.50;99.90;;;;;;5014356;28;19992;-82
2022/06/16 09:58:22;;;;;;;;;;;37.50;99.90;;;;;;5032894;28;19921;-82
2022/06/16 10:00:48;;;;;;;;;;;37.70;99.90;;;;;;5032935;28;20011;-82
2022/06/16 10:03:32;;;;;;;;;;;38.00;99.90;;;;;;5033904;28;20354;-81
2022/06/16 10:06:07;;;;;;;;;;;38.20;99.90;;;;;;5032514;28;19966;-81
2022/06/16 10:08:39;;;;;;;;;;;38.30;99.90;;;;;;5032717;28;20037;-82
2022/06/16 10:11:18;;;;;;;;;;;38.50;99.90;;;;;;5014444;28;19928;-81
2022/06/16 10:13:50;;;;;;;;;;;38.40;99.90;;;;;;5014905;28;19921;-82
2022/06/16 10:16:17;;;;;;;;;;;38.20;99.90;;;;;;5032120;28;19928;-82
2022/06/16 10:18:44;;;;;;;;;;;38.40;99.90;;;;;;5031568;28;19974;-81
2022/06/16 10:21:10;;;;;;;;;;;39.00;99.90;;;;;;5031911;28;19932;-82
2022/06/16 10:23:41;;;;;;;;;;;39.40;99.90;;;;;;5032105;28;19972;-81
2022/06/16 10:26:08;;;;;;;;;;;39.70;99.90;;;;;;5031154;28;20004;-82
2022/06/16 10:28:48;;;;;;;;;;;39.90;99.90;;;;;;5032099;28;20290;-82
2022/06/16 10:31:33;;;;;;;;;;;39.60;99.90;;;;;;5032175;28;19924;-82
2022/06/16 10:34:01;;;;;;;;;;;39.30;99.90;;;;;;5014296;28;20066;-82
2022/06/16 10:36:27;;;;;;;;;;;39.40;99.90;;;;;;5032293;28;19921;-82
2022/06/16 10:39:15;;;;;;;;;;;39.50;99.90;;;;;;5014259;28;19921;-82
2022/06/16 10:41:49;;;;;;;;;;;38.70;99.90;;;;;;5031816;28;19987;-82
2022/06/16 10:44:15;;;;;;;;;;;39.20;99.90;;;;;;5032364;28;19940;-81
2022/06/16 10:46:47;;;;;;;;;;;39.30;99.90;;;;;;5032139;28;19921;-81
2022/06/16 10:49:19;;;;;;;;;;;39.20;99.90;;;;;;5014431;28;19986;-82
2022/06/16 10:51:56;;;;;;;;;;;39.40;99.90;;;;;;5031847;28;20373;-81
2022/06/16 10:54:27;;;;;;;;;;;39.60;99.90;;;;;;5031759;28;19975;-81
2022/06/16 10:57:06;;;;;;;;;;;39.50;99.90;;;;;;5013778;28;19928;-81
2022/06/16 10:59:35;;;;;;;;;;;39.50;99.90;;;;;;5031944;28;19921;-81
2022/06/16 11:02:13;;;;;;;;;;;39.70;99.90;;;;;;5031678;28;20298;-82
2022/06/16 11:04:39;;;;;;;;;;;39.70;99.90;;;;;;5031826;28;19935;-81
2022/06/16 11:07:09;;;;;;;;;;;39.20;99.90;;;;;;5031607;28;20277;-81
2022/06/16 11:09:35;;;;;;;;;;;39.10;99.90;;;;;;5031780;28;19921;-81
2022/06/16 11:12:03;;;;;;;;;;;39.10;99.90;;;;;;5030894;28;19975;-83
2022/06/16 11:14:29;;;;;;;;;;;39.60;99.90;;;;;;5031197;28;19936;-82
2022/06/16 11:16:55;;;;;;;;;;;40.00;99.90;;;;;;5013706;28;19990;-83
2022/06/16 11:19:34;;;;;;;;;;;39.90;99.90;;;;;;5031748;28;19972;-83
2022/06/16 11:22:04;;;;;;;;;;;39.70;99.90;;;;;;5031266;28;19921;-83
2022/06/16 11:24:31;;;;;;;;;;;38.90;99.90;;;;;;5031260;28;19921;-82
2022/06/16 11:27:05;;;;;;;;;;;38.30;99.90;;;;;;5030779;28;19921;-82
2022/06/16 11:29:33;;;;;;;;;;;37.80;99.90;;;;;;5016052;28;19927;-81
2022/06/16 11:32:07;;;;;;;;;;;37.80;99.90;;;;;;5034626;28;20297;-82
2022/06/16 11:34:33;;;;;;;;;;;38.40;99.90;;;;;;5035206;28;19925;-81
2022/06/16 11:37:00;;;;;;;;;;;38.50;99.90;;;;;;5034828;28;20024;-82
2022/06/16 11:39:26;;;;;;;;;;;38.20;99.90;;;;;;5017960;28;20465;-82
2022/06/16 11:41:52;;;;;;;;;;;38.50;99.90;;;;;;5034742;28;19987;-82
2022/06/16 11:44:37;;;;;;;;;;;38.90;99.90;;;;;;5034797;28;20049;-82
2022/06/16 11:47:23;;;;;;;;;;;38.60;99.70;;;;;;5017139;28;19921;-81
2022/06/16 11:49:57;;;;;;;;;;;38.60;99.90;;;;;;5034874;28;19964;-82
2022/06/16 11:52:28;;;;;;;;;;;38.80;99.90;;;;;;5034919;28;20059;-81
2022/06/16 11:55:12;;;;;;;;;;;38.80;99.90;;;;;;5034684;28;19921;-82
2022/06/16 11:57:47;;;;;;;;;;;38.60;99.20;;;;;;5017219;28;19925;-81
2022/06/16 12:00:17;;;;;;;;;;;38.50;99.60;;;;;;5034779;28;20105;-82
2022/06/16 12:02:45;;;;;;;;;;;38.50;99.90;;;;;;5017908;28;19927;-81
2022/06/16 12:05:27;;;;;;;;;;;38.70;99.90;;;;;;5034713;28;20234;-81
2022/06/16 12:08:19;;;;;;;;;;;38.70;99.90;;;;;;5035102;28;20019;-80
2022/06/16 12:10:48;;;;;;;;;;;37.90;99.90;;;;;;5034506;28;19925;-82
2022/06/16 12:13:28;;;;;;;;;;;37.70;99.50;;;;;;5016904;28;19982;-81
2022/06/16 12:16:05;;;;;;;;;;;37.60;98.60;;;;;;5034355;28;19921;-82
2022/06/16 12:18:55;;;;;;;;;;;37.20;98.70;;;;;;5034854;28;19921;-81
2022/06/16 12:21:23;;;;;;;;;;;36.10;99.60;;;;;;5017327;28;19928;-82
2022/06/16 12:23:55;;;;;;;;;;;35.00;99.90;;;;;;5017184;28;20309;-81
2022/06/16 12:26:28;;;;;;;;;;;34.00;98.70;;;;;;5016816;28;19921;-81
2022/06/16 12:28:53;;;;;;;;;;;33.00;99.30;;;;;;5034421;28;19925;-81
2022/06/16 12:31:21;;;;;;;;;;;32.40;99.90;;;;;;5034157;28;20356;-81
2022/06/16 12:33:53;;;;;;;;;;;31.60;97.90;;;;;;5034608;28;19929;-81
2022/06/16 12:36:25;;;;;;;;;;;31.30;99.90;;;;;;5034139;28;19979;-81
2022/06/16 12:38:54;;;;;;;;;;;30.80;99.90;;;;;;5017056;28;19921;-80
2022/06/16 12:41:24;;;;;;;;;;;30.60;99.90;;;;;;5032112;28;19921;-81
2022/06/16 12:44:03;;;;;;;;;;;30.70;99.90;;;;;;5016932;28;20381;-80
2022/06/16 12:46:35;;;;;;;;;;;30.80;99.90;;;;;;5034189;28;20001;-80
2022/06/16 12:49:16;;;;;;;;;;;30.60;99.90;;;;;;5033985;28;20273;-80
2022/06/16 12:51:45;;;;;;;;;;;30.60;99.90;;;;;;5034282;28;19975;-80
2022/06/16 12:54:29;;;;;;;;;;;30.30;99.90;;;;;;5033689;28;19921;-81
2022/06/16 12:56:57;;;;;;;;;;;30.20;99.90;;;;;;5033328;28;19968;-81
2022/06/16 12:59:38;;;;;;;;;;;29.90;99.90;;;;;;5033521;28;20500;-81
2022/06/16 13:02:05;;;;;;;;;;;29.60;99.90;;;;;;5033745;28;19921;-81
2022/06/16 13:04:32;;;;;;;;;;;29.30;99.90;;;;;;5034332;28;19921;-81
2022/06/16 13:06:59;;;;;;;;;;;29.10;99.90;;;;;;5033883;28;20011;-80
2022/06/16 13:09:25;;;;;;;;;;;28.80;99.90;;;;;;5033655;28;19921;-81
2022/06/16 13:11:54;;;;;;;;;;;28.40;99.90;;;;;;5032923;28;20054;-80
2022/06/16 13:14:26;;;;;;;;;;;27.70;99.90;;;;;;5033138;28;20066;-79
2022/06/16 13:16:52;;;;;;;;;;;27.60;99.90;;;;;;5033646;28;19921;-80
2022/06/16 13:19:19;;;;;;;;;;;27.70;99.90;;;;;;5015410;28;19944;-81
2022/06/16 13:21:51;;;;;;;;;;;27.60;99.90;;;;;;5033372;28;19921;-81
2022/06/16 13:24:22;;;;;;;;;;;27.60;99.90;;;;;;5015455;28;19940;-81
2022/06/16 13:26:54;;;;;;;;;;;27.70;99.90;;;;;;5033715;28;19921;-83
2022/06/16 13:29:20;;;;;;;;;;;27.80;99.90;;;;;;5033287;28;19921;-81
2022/06/16 13:31:48;;;;;;;;;;;27.80;99.90;;;;;;5033174;28;19925;-79
2022/06/16 13:34:34;;;;;;;;;;;27.90;99.90;;;;;;5032795;28;20285;-80
2022/06/16 13:37:00;;;;;;;;;;;28.10;99.90;;;;;;5015424;28;19927;-79
2022/06/16 13:39:44;;;;;;;;;;;28.00;99.90;;;;;;5032766;28;20440;-82
2022/06/16 13:42:15;;;;;;;;;;;27.90;99.90;;;;;;5032799;28;19921;-80
2022/06/16 13:45:01;;;;;;;;;;;27.60;99.90;;;;;;5033498;28;20288;-79
2022/06/16 13:47:26;;;;;;;;;;;27.50;99.90;;;;;;5015020;28;20384;-80
2022/06/16 13:49:52;;;;;;;;;;;27.40;99.90;;;;;;5032780;28;19921;-80
2022/06/16 13:52:24;;;;;;;;;;;27.50;99.90;;;;;;5032585;28;20536;-81
2022/06/16 13:54:50;;;;;;;;;;;27.50;99.90;;;;;;5015164;28;20019;-80
2022/06/16 13:57:23;;;;;;;;;;;27.60;99.90;;;;;;5014630;28;19968;-80
2022/06/16 13:59:55;;;;;;;;;;;27.40;99.90;;;;;;5032272;28;19967;-80
2022/06/16 14:02:21;;;;;;;;;;;27.30;99.90;;;;;;5014506;28;20269;-80
2022/06/16 14:05:00;;;;;;;;;;;27.10;99.90;;;;;;5032504;28;20388;-80
2022/06/16 14:07:31;;;;;;;;;;;27.00;99.90;;;;;;5032037;28;19999;-80
2022/06/16 14:10:02;;;;;;;;;;;26.70;99.90;;;;;;5032711;28;19991;-81
2022/06/16 14:12:46;;;;;;;;;;;26.60;99.90;;;;;;5013839;28;19960;-81
2022/06/16 14:15:12;;;;;;;;;;;26.40;99.90;;;;;;5031631;28;19929;-81
2022/06/16 14:17:46;;;;;;;;;;;26.20;99.90;;;;;;5015349;28;19928;-80
2022/06/16 14:20:16;;;;;;;;;;;26.00;99.90;;;;;;5032147;28;19924;-81
2022/06/16 14:22:45;;;;;;;;;;;25.90;99.90;;;;;;5032255;28;20266;-80
2022/06/16 14:25:16;;;;;;;;;;;25.80;99.90;;;;;;5031961;28;19932;-79
2022/06/16 14:27:52;;;;;;;;;;;25.70;99.90;;;;;;5014047;28;19920;-79
2022/06/16 14:30:19;;;;;;;;;;;25.80;99.90;;;;;;5031735;28;19921;-79
2022/06/16 14:32:49;;;;;;;;;;;25.70;99.90;;;;;;5032124;28;19921;-79
2022/06/16 14:35:26;;;;;;;;;;;25.60;99.90;;;;;;5031863;28;20365;-79
2022/06/16 14:37:55;;;;;;;;;;;25.60;99.90;;;;;;5032346;28;19921;-79
2022/06/16 14:40:43;;;;;;;;;;;25.50;99.90;;;;;;5013702;28;19927;-79
2022/06/16 14:43:17;;;;;;;;;;;25.30;99.90;;;;;;5032045;28;20266;-79
2022/06/16 14:45:45;;;;;;;;;;;25.10;99.90;;;;;;5031268;28;20027;-80
2022/06/16 14:48:29;;;;;;;;;;;24.90;99.90;;;;;;5031863;28;19921;-80
2022/06/16 14:50:56;;;;;;;;;;;25.00;99.90;;;;;;5032102;28;19921;-79
2022/06/16 14:53:24;;;;;;;;;;;25.00;99.90;;;;;;5030369;28;19920;-81
2022/06/16 14:55:54;;;;;;;;;;;25.20;99.90;;;;;;5030136;28;19923;-80
2022/06/16 14:58:21;;;;;;;;;;;25.40;99.90;;;;;;5031170;28;19964;-80
2022/06/16 15:00:48;;;;;;;;;;;25.60;99.90;;;;;;5031854;28;19931;-80